Weldona, Colorado
Current Conditions -  °F | °C
As of 12:35 PM on Saturday 25 Oct 2014 (Local Time) from KFMM Reporting Station
Clear Clear  
Wind Chill: 75°   Ceiling: Unl
Heat Index: 75°   Visibility: 10mi
Dew Point: 29°   Wind: 3mph
Humidity: 18%   Direction: 230°SW
Pressure: 30.15"   Gusts: NA
Location:  40.35°N, 103.97°W
Report Text: KFMM 251835Z AUTO 23003KT 10SM CLR 24/M02 A3015 RMK AO2 T02381018
Loading
Personal Weather Stations






























Interactive Weather Map
Tropical Storm Tracking
New forecast layout! Learn more

10-Day Weather Forecast

Advertisements
Track Severe Weather on mobile